Time;durP1;ratioP1;P1;durP2;ratioP2;P2;SDS_P1;SDS_P2;PMS_P1;PMS_P2;Temp;Humidity;BMP_temperature;BMP_pressure;BME280_temperature;BME280_humidity;BME280_pressure;Samples;Min_cycle;Max_cycle;Signal;HPM_P1;HPM_P2
2023/05/07 00:00:35;;;;;;;33.67;30.38;;;13.90;99.90;;;;;;6167842;23;20383;-95
2023/05/07 00:03:01;;;;;;;33.17;29.88;;;13.80;99.90;;;;;;6166194;23;20402;-95
2023/05/07 00:05:29;;;;;;;33.47;30.00;;;13.70;99.90;;;;;;6169161;23;20450;-95
2023/05/07 00:08:03;;;;;;;34.30;30.83;;;13.60;99.90;;;;;;6169661;23;20364;-96
2023/05/07 00:15:25;;;;;;;33.53;30.03;;;13.50;99.90;;;;;;6104716;23;20445;-94
2023/05/07 00:18:30;;;;;;;34.58;30.90;;;13.50;99.90;;;;;;6077621;23;20414;-95
2023/05/07 00:21:02;;;;;;;35.78;32.03;;;13.50;99.90;;;;;;6077773;23;20868;-94
2023/05/07 00:23:48;;;;;;;34.70;31.10;;;13.50;99.90;;;;;;6053858;23;20386;-95
2023/05/07 00:26:42;;;;;;;34.97;31.30;;;13.60;99.90;;;;;;6047883;23;20382;-95
2023/05/07 00:29:10;;;;;;;36.13;32.20;;;13.20;99.90;;;;;;6073320;23;20403;-95
2023/05/07 00:34:36;;;;;;;36.65;32.67;;;13.40;99.90;;;;;;6212268;22;20705;-93
2023/05/07 00:37:02;;;;;;;38.55;34.50;;;13.30;99.90;;;;;;6162970;23;20379;-95
2023/05/07 00:42:57;;;;;;;38.40;34.40;;;13.40;99.90;;;;;;6093733;23;20420;-94
2023/05/07 00:45:35;;;;;;;38.72;34.60;;;13.30;99.90;;;;;;6161321;23;20839;-96
2023/05/07 00:48:13;;;;;;;38.80;34.75;;;13.70;99.90;;;;;;6165769;23;20376;-93
2023/05/07 00:54:19;;;;;;;38.42;34.28;;;13.30;99.90;;;;;;6186365;23;20926;-94
2023/05/07 00:56:54;;;;;;;40.38;35.70;;;13.10;99.90;;;;;;6161020;23;20395;-94
2023/05/07 00:59:19;;;;;;;39.90;35.67;;;13.40;99.90;;;;;;6192339;23;20386;-94
2023/05/07 01:01:45;;;;;;;38.33;34.38;;;13.70;99.90;;;;;;6184746;23;20372;-93
2023/05/07 01:04:11;;;;;;;38.33;34.43;;;13.50;99.90;;;;;;6188652;23;20399;-94
2023/05/07 01:06:47;;;;;;;39.58;35.40;;;13.50;99.90;;;;;;6164299;23;20502;-94
2023/05/07 01:09:17;;;;;;;39.80;35.58;;;13.20;99.90;;;;;;6167062;23;20406;-94
2023/05/07 01:11:43;;;;;;;42.10;37.58;;;13.30;99.90;;;;;;6164208;23;20452;-94
2023/05/07 01:14:16;;;;;;;40.30;36.03;;;13.40;99.90;;;;;;6172878;23;20375;-94
2023/05/07 01:16:54;;;;;;;41.03;36.83;;;13.30;99.90;;;;;;6167822;23;20382;-94
2023/05/07 01:19:23;;;;;;;40.65;36.35;;;13.50;99.90;;;;;;6192893;23;20840;-94
2023/05/07 01:21:59;;;;;;;38.70;34.67;;;13.30;99.90;;;;;;6187375;23;20364;-93
2023/05/07 01:24:25;;;;;;;38.78;34.67;;;13.20;99.90;;;;;;6171845;23;20876;-94
2023/05/07 01:27:40;;;;;;;39.17;35.07;;;13.20;99.90;;;;;;6193295;23;20372;-94
2023/05/07 01:30:08;;;;;;;41.38;37.05;;;13.10;99.90;;;;;;6077109;23;20386;-94
2023/05/07 01:32:48;;;;;;;39.60;35.40;;;13.10;99.90;;;;;;6056614;23;20390;-93
2023/05/07 01:43:13;;;;;;;;;;;;;;;;;;;;;
2023/05/07 01:56:08;;;;;;;43.08;38.55;;;12.90;99.90;;;;;;6169535;23;20358;-94
2023/05/07 01:58:37;;;;;;;44.15;39.50;;;12.90;99.90;;;;;;6141012;23;20463;-94
2023/05/07 02:04:53;;;;;;;41.83;37.57;;;12.80;99.90;;;;;;6072116;23;20463;-94
2023/05/07 02:07:28;;;;;;;42.95;38.25;;;12.70;99.90;;;;;;6079660;23;20439;-96
2023/05/07 02:09:55;;;;;;;43.30;38.80;;;13.00;99.90;;;;;;6054209;23;20390;-94
2023/05/07 02:12:56;;;;;;;42.95;38.55;;;12.80;99.90;;;;;;6053911;23;20385;-94
2023/05/07 02:15:22;;;;;;;44.40;39.72;;;12.70;99.90;;;;;;6045801;23;20427;-93
2023/05/07 02:18:44;;;;;;;44.13;39.33;;;12.90;99.90;;;;;;6054726;23;20378;-94
2023/05/07 02:21:10;;;;;;;44.83;40.10;;;12.60;99.90;;;;;;6002110;23;21071;-94
2023/05/07 02:24:14;;;;;;;43.83;39.23;;;12.60;99.90;;;;;;6055879;23;20375;-94
2023/05/07 02:27:05;;;;;;;42.78;38.17;;;12.50;99.90;;;;;;6023238;23;20386;-94
2023/05/07 02:29:31;;;;;;;43.27;38.73;;;12.50;99.90;;;;;;6055261;23;20386;-95
2023/05/07 02:32:23;;;;;;;42.93;38.23;;;13.20;99.90;;;;;;6052672;23;20458;-95
2023/05/07 02:48:57;;;;;;;44.30;39.50;;;12.30;99.90;;;;;;6098362;23;20413;-96
2023/05/07 02:51:32;;;;;;;45.35;40.45;;;12.30;99.90;;;;;;6055106;23;20741;-94
2023/05/07 02:54:01;;;;;;;45.28;40.33;;;12.50;99.90;;;;;;6049521;23;20382;-93
2023/05/07 02:56:27;;;;;;;44.58;39.85;;;12.20;99.90;;;;;;6049481;23;20398;-94
2023/05/07 03:03:02;;;;;;;46.17;40.73;;;12.10;99.90;;;;;;6203587;23;20406;-95
2023/05/07 03:06:08;;;;;;;48.33;42.00;;;12.00;99.90;;;;;;6171968;23;20402;-96
2023/05/07 03:08:44;;;;;;;46.05;40.38;;;12.10;99.90;;;;;;6169676;23;20375;-95
2023/05/07 03:11:09;;;;;;;47.67;42.50;;;12.10;99.90;;;;;;6193908;23;20406;-95
2023/05/07 03:13:45;;;;;;;47.58;42.05;;;12.30;99.90;;;;;;6195112;23;20367;-93
2023/05/07 03:16:56;;;;;;;53.25;45.08;;;12.00;99.90;;;;;;6176478;23;20942;-96
2023/05/07 03:19:34;;;;;;;48.22;42.92;;;12.00;99.90;;;;;;6170377;23;20395;-94
2023/05/07 03:25:46;;;;;;;52.42;44.42;;;11.90;99.90;;;;;;6224810;23;20782;-95
2023/05/07 03:28:43;;;;;;;52.03;44.70;;;11.90;99.90;;;;;;6174609;23;20379;-95
2023/05/07 03:31:11;;;;;;;52.42;46.13;;;11.90;99.90;;;;;;6194080;23;20875;-94
2023/05/07 03:34:10;;;;;;;54.28;44.83;;;11.90;99.90;;;;;;6170919;23;20368;-95
2023/05/07 03:37:28;;;;;;;53.47;44.75;;;11.90;99.90;;;;;;6176172;23;20381;-94
2023/05/07 03:44:19;;;;;;;50.92;43.88;;;11.90;99.90;;;;;;6048737;23;20381;-95
2023/05/07 03:51:06;;;;;;;51.30;42.80;;;11.90;99.90;;;;;;6039247;23;20469;-94
2023/05/07 03:53:35;;;;;;;53.00;44.55;;;11.80;99.90;;;;;;5999409;23;20481;-95
2023/05/07 03:56:52;;;;;;;;;;;;;;;;;;;;;
2023/05/07 04:06:37;;;;;;;58.00;46.73;;;11.80;99.90;;;;;;6049628;23;20409;-94
2023/05/07 04:10:00;;;;;;;58.60;46.97;;;12.00;99.90;;;;;;6136370;23;20473;-96
2023/05/07 04:16:41;;;;;;;59.70;46.97;;;11.80;99.90;;;;;;6198431;23;20368;-94
2023/05/07 04:22:19;;;;;;;61.70;48.50;;;11.80;99.90;;;;;;6217428;22;20401;-94
2023/05/07 04:28:59;;;;;;;60.00;48.17;;;11.80;99.90;;;;;;6117504;23;20442;-94
2023/05/07 04:35:26;;;;;;;61.67;48.70;;;11.70;99.90;;;;;;6081477;23;20404;-94
2023/05/07 04:46:23;;;;;;;68.13;51.00;;;11.80;99.90;;;;;;6194438;23;20401;-95
2023/05/07 04:55:11;;;;;;;62.22;49.05;;;11.80;99.90;;;;;;6205414;22;20407;-94
2023/05/07 04:57:55;;;;;;;63.55;49.35;;;11.80;99.90;;;;;;6146746;23;20379;-95
2023/05/07 05:05:02;;;;;;;;;;;;;;;;;;;;;
2023/05/07 05:47:17;;;;;;;48.30;40.53;;;12.10;99.90;;;;;;6224444;22;20393;-96
2023/05/07 05:52:40;;;;;;;46.55;40.80;;;12.20;99.90;;;;;;6227709;22;20395;-94
2023/05/07 06:09:36;;;;;;;44.70;39.40;;;12.30;99.90;;;;;;6136849;23;20444;-94
2023/05/07 06:15:00;;;;;;;41.40;36.97;;;12.40;99.90;;;;;;6226423;22;20398;-94
2023/05/07 06:17:31;;;;;;;43.13;38.53;;;12.50;99.90;;;;;;6166278;23;20389;-96
2023/05/07 06:20:00;;;;;;;42.75;38.08;;;12.10;99.90;;;;;;6172234;23;20376;-93
2023/05/07 06:22:47;;;;;;;42.00;37.45;;;12.50;99.90;;;;;;6194507;23;20372;-93
2023/05/07 06:25:36;;;;;;;42.13;37.53;;;12.50;99.90;;;;;;6170695;23;20404;-94
2023/05/07 06:28:27;;;;;;;41.17;36.85;;;12.60;99.90;;;;;;6192213;23;20438;-94
2023/05/07 06:31:13;;;;;;;40.20;36.10;;;12.50;99.90;;;;;;6160232;23;20394;-94
2023/05/07 06:33:39;;;;;;;39.78;35.58;;;12.60;99.90;;;;;;6172942;23;20364;-90
2023/05/07 06:36:35;;;;;;;40.67;36.50;;;12.80;99.90;;;;;;6174066;23;20371;-93
2023/05/07 06:39:13;;;;;;;37.73;33.90;;;12.60;99.90;;;;;;6192255;23;20384;-95
2023/05/07 06:41:39;;;;;;;36.95;33.22;;;12.70;99.90;;;;;;6198428;23;20379;-94
2023/05/07 06:44:07;;;;;;;39.17;35.07;;;12.70;99.90;;;;;;6196006;23;20367;-93
2023/05/07 06:46:33;;;;;;;38.13;34.10;;;12.80;99.90;;;;;;6171485;23;20914;-93
2023/05/07 06:52:21;;;;;;;37.22;33.42;;;13.10;99.90;;;;;;6092797;23;20372;-93
2023/05/07 06:54:53;;;;;;;36.17;32.38;;;13.10;99.90;;;;;;6083692;23;20405;-96
2023/05/07 06:57:39;;;;;;;34.58;31.10;;;12.90;99.90;;;;;;6085383;23;20420;-93
2023/05/07 07:00:27;;;;;;;37.50;33.77;;;12.90;99.90;;;;;;6082058;23;20388;-94
2023/05/07 07:03:00;;;;;;;35.53;31.92;;;12.90;99.90;;;;;;6026863;23;20384;-94
2023/05/07 07:05:38;;;;;;;34.15;30.80;;;12.90;99.90;;;;;;6080799;23;20723;-94
2023/05/07 07:08:32;;;;;;;33.97;30.63;;;12.80;99.90;;;;;;6191197;23;20371;-94
2023/05/07 07:11:00;;;;;;;34.95;31.45;;;13.00;99.90;;;;;;6196017;23;20462;-94
2023/05/07 07:13:31;;;;;;;34.28;30.95;;;13.40;99.90;;;;;;6165395;23;20386;-94
2023/05/07 07:16:29;;;;;;;34.95;31.48;;;12.80;99.90;;;;;;6165126;23;20377;-94
2023/05/07 07:18:54;;;;;;;35.70;31.92;;;12.80;99.90;;;;;;6167783;23;20376;-94
2023/05/07 07:24:07;;;;;;;33.40;30.20;;;12.90;99.90;;;;;;6226149;22;20390;-95
2023/05/07 07:26:48;;;;;;;33.38;30.08;;;13.30;99.90;;;;;;6194079;23;20379;-94
2023/05/07 07:29:52;;;;;;;34.70;31.27;;;13.00;99.90;;;;;;6179497;23;20394;-95
2023/05/07 07:32:18;;;;;;;34.10;30.70;;;13.00;99.90;;;;;;6167763;23;20871;-93
2023/05/07 07:34:58;;;;;;;33.75;30.35;;;13.00;99.90;;;;;;6199485;23;20407;-94
2023/05/07 07:37:44;;;;;;;33.95;30.63;;;13.10;99.90;;;;;;6168482;23;20778;-93
2023/05/07 07:40:12;;;;;;;32.42;28.98;;;12.90;99.90;;;;;;6169802;23;20374;-94
2023/05/07 07:42:38;;;;;;;33.70;30.40;;;13.20;99.90;;;;;;6169509;23;20371;-93
2023/05/07 07:45:15;;;;;;;33.27;30.00;;;13.20;99.90;;;;;;6199633;23;20394;-94
2023/05/07 07:47:48;;;;;;;33.47;30.08;;;13.40;99.90;;;;;;6197235;23;20372;-94
2023/05/07 07:50:35;;;;;;;32.77;29.57;;;13.40;99.90;;;;;;6167152;23;20372;-94
2023/05/07 07:53:09;;;;;;;33.03;29.67;;;13.50;99.90;;;;;;6167309;23;20367;-95
2023/05/07 07:55:47;;;;;;;32.90;29.70;;;13.50;99.90;;;;;;6171147;23;20403;-93
2023/05/07 07:58:54;;;;;;;33.20;30.08;;;14.60;99.90;;;;;;6174974;23;20423;-93
2023/05/07 08:08:32;;;;;;;31.17;28.10;;;14.30;99.90;;;;;;6196921;23;20479;-94
2023/05/07 08:11:42;;;;;;;30.60;27.60;;;14.50;99.90;;;;;;6195604;23;20852;-92
2023/05/07 08:14:46;;;;;;;;;;;;;;;;;;;;;
2023/05/07 08:17:22;;;;;;;;;;;;;;;;;;;;;
2023/05/07 08:20:12;;;;;;;30.08;26.98;;;15.00;99.90;;;;;;6160661;23;20370;-93
2023/05/07 08:22:38;;;;;;;30.38;27.38;;;15.10;99.90;;;;;;6194310;23;20697;-94
2023/05/07 08:25:09;;;;;;;29.83;26.97;;;15.00;99.90;;;;;;6205140;23;20402;-94
2023/05/07 08:28:21;;;;;;;;;;;;;;;;;;;;;
2023/05/07 08:31:00;;;;;;;30.30;27.30;;;14.90;99.90;;;;;;6092600;23;20414;-94
2023/05/07 08:33:38;;;;;;;30.50;27.60;;;15.10;99.90;;;;;;6176059;23;20398;-94
2023/05/07 08:36:07;;;;;;;29.10;26.38;;;15.30;99.90;;;;;;6179642;23;20376;-94
2023/05/07 08:38:49;;;;;;;29.55;26.75;;;15.20;99.90;;;;;;6170386;23;20788;-93
2023/05/07 08:41:53;;;;;;;30.15;27.35;;;15.20;99.90;;;;;;6169934;23;20372;-93
2023/05/07 08:45:05;;;;;;;30.60;27.60;;;15.40;99.90;;;;;;6190545;23;20436;-93
2023/05/07 08:48:02;;;;;;;30.40;27.67;;;15.40;99.90;;;;;;6173385;23;20386;-94
2023/05/07 08:51:20;;;;;;;28.85;26.15;;;15.50;99.90;;;;;;6086617;23;20374;-93
2023/05/07 08:54:53;;;;;;;29.50;26.70;;;15.80;99.90;;;;;;6202296;23;20387;-94
2023/05/07 08:57:34;;;;;;;30.77;27.70;;;15.50;99.90;;;;;;6111977;23;20439;-92
2023/05/07 09:00:36;;;;;;;;;;;;;;;;;;;;;
2023/05/07 09:03:12;;;;;;;30.00;27.10;;;15.70;99.90;;;;;;6078492;23;20473;-95
2023/05/07 09:05:48;;;;;;;30.75;27.75;;;15.80;99.90;;;;;;6171385;23;20404;-94
2023/05/07 09:08:20;;;;;;;30.02;27.02;;;16.00;99.90;;;;;;6171582;23;20382;-93
2023/05/07 09:14:44;;;;;;;30.48;27.58;;;16.20;99.90;;;;;;6193580;23;20403;-92
2023/05/07 09:17:19;;;;;;;29.77;26.90;;;16.20;99.90;;;;;;6172685;23;20868;-93
2023/05/07 09:20:29;;;;;;;32.15;29.05;;;16.40;99.90;;;;;;6170260;23;20368;-94
2023/05/07 09:23:13;;;;;;;29.95;27.05;;;16.30;99.90;;;;;;6171699;23;20693;-94
2023/05/07 09:25:47;;;;;;;29.50;26.60;;;16.40;99.90;;;;;;6192232;23;20419;-93
2023/05/07 09:28:28;;;;;;;29.17;26.47;;;16.70;99.90;;;;;;6171812;23;20457;-93
2023/05/07 09:31:06;;;;;;;30.08;27.25;;;16.70;99.90;;;;;;6201126;23;20427;-91
2023/05/07 09:33:32;;;;;;;29.73;26.92;;;16.40;99.90;;;;;;6169302;23;20466;-93
2023/05/07 09:35:58;;;;;;;30.30;27.40;;;16.30;99.90;;;;;;6192335;23;20687;-93
2023/05/07 09:38:33;;;;;;;29.93;27.03;;;15.90;99.90;;;;;;6188616;23;20433;-94
2023/05/07 09:42:08;;;;;;;;;;;;;;;;;;;;;
2023/05/07 09:45:52;;;;;;;29.90;27.02;;;16.40;99.90;;;;;;6073486;23;20406;-94
2023/05/07 09:48:17;;;;;;;30.23;27.33;;;16.50;99.90;;;;;;6007868;23;20476;-93
2023/05/07 09:51:14;;;;;;;30.67;27.77;;;16.70;99.90;;;;;;6157534;23;20466;-93
2023/05/07 09:53:41;;;;;;;30.88;27.98;;;16.80;99.90;;;;;;6174571;23;20379;-93
2023/05/07 09:56:07;;;;;;;29.83;27.10;;;17.60;99.90;;;;;;6171026;23;20374;-93
2023/05/07 09:58:46;;;;;;;29.27;26.43;;;17.70;99.90;;;;;;6164372;23;20391;-94
2023/05/07 10:02:04;;;;;;;29.77;26.87;;;17.50;99.90;;;;;;6113181;23;20379;-94
2023/05/07 10:04:53;;;;;;;29.80;27.07;;;17.90;99.90;;;;;;6110927;23;20395;-93
2023/05/07 10:07:26;;;;;;;28.40;25.70;;;17.80;99.90;;;;;;6107018;23;20394;-94
2023/05/07 10:10:34;;;;;;;28.83;26.17;;;17.90;99.90;;;;;;6114261;23;20390;-94
2023/05/07 10:13:11;;;;;;;29.60;26.73;;;17.90;99.90;;;;;;6117742;23;20442;-93
2023/05/07 10:16:11;;;;;;;28.80;25.95;;;17.80;99.90;;;;;;6049834;23;20376;-91
2023/05/07 10:25:39;;;;;;;27.90;25.40;;;18.20;99.90;;;;;;6194004;23;20403;-93
2023/05/07 10:29:03;;;;;;;26.40;23.92;;;18.90;99.90;;;;;;6160777;23;20428;-94
2023/05/07 10:32:24;;;;;;;26.20;23.83;;;19.50;99.90;;;;;;6109920;23;20378;-93
2023/05/07 10:38:54;;;;;;;25.52;23.23;;;19.80;99.90;;;;;;6125030;23;20383;-94
2023/05/07 10:42:16;;;;;;;26.38;24.00;;;19.90;99.90;;;;;;6099737;23;20390;-93
2023/05/07 10:48:21;;;;;;;23.95;21.92;;;19.90;99.90;;;;;;6146686;23;20367;-93
2023/05/07 10:54:35;;;;;;;24.52;22.33;;;20.30;99.90;;;;;;6151431;23;20387;-95
2023/05/07 10:57:28;;;;;;;25.27;23.08;;;20.30;99.90;;;;;;6107063;23;20387;-94
2023/05/07 11:00:16;;;;;;;23.48;21.45;;;20.50;99.90;;;;;;6114230;23;20387;-94
2023/05/07 11:03:14;;;;;;;21.75;19.95;;;20.80;98.90;;;;;;6100227;23;20947;-94
2023/05/07 11:06:27;;;;;;;23.17;21.10;;;21.20;99.90;;;;;;6139036;23;20395;-94
2023/05/07 11:09:00;;;;;;;22.75;20.75;;;21.30;98.80;;;;;;6199757;23;20387;-94
2023/05/07 11:11:55;;;;;;;22.60;20.70;;;21.30;96.10;;;;;;6192628;23;20380;-93
2023/05/07 11:14:40;;;;;;;22.05;20.20;;;21.50;99.70;;;;;;6178068;23;20359;-94
2023/05/07 11:23:35;;;;;;;21.02;19.33;;;22.20;93.90;;;;;;5974722;23;20401;-94
2023/05/07 11:26:19;;;;;;;20.88;19.08;;;22.70;96.30;;;;;;6053233;23;21193;-93
2023/05/07 11:28:51;;;;;;;21.83;19.95;;;23.10;89.10;;;;;;6053393;23;20538;-92
2023/05/07 11:31:52;;;;;;;21.40;19.63;;;23.10;76.80;;;;;;6053682;23;20401;-93
2023/05/07 11:34:34;;;;;;;20.73;18.92;;;23.20;75.10;;;;;;6048208;23;20382;-93
2023/05/07 11:37:07;;;;;;;20.55;18.95;;;23.30;79.50;;;;;;6054851;23;20384;-95
2023/05/07 11:39:35;;;;;;;21.27;19.57;;;23.40;73.80;;;;;;6058031;23;20397;-93
2023/05/07 11:42:37;;;;;;;20.55;18.85;;;23.70;80.10;;;;;;6075985;23;20392;-94
2023/05/07 11:45:24;;;;;;;21.17;19.38;;;23.40;78.70;;;;;;6053315;23;21058;-94
2023/05/07 11:47:54;;;;;;;20.75;19.05;;;23.80;82.90;;;;;;6075081;23;20409;-92
2023/05/07 11:50:30;;;;;;;20.70;19.00;;;23.50;78.40;;;;;;6055281;23;20374;-94
2023/05/07 11:53:30;;;;;;;19.92;18.27;;;23.80;76.40;;;;;;6051442;23;20381;-94
2023/05/07 12:00:09;;;;;;;;;;;;;;;;;;;;;
2023/05/07 12:02:37;;;;;;;21.95;20.05;;;24.00;70.80;;;;;;5974747;23;20394;-90
2023/05/07 12:05:06;;;;;;;20.75;18.98;;;24.20;76.40;;;;;;5963443;23;20458;-94
2023/05/07 12:08:18;;;;;;;;;;;;;;;;;;;;;
2023/05/07 12:11:01;;;;;;;19.98;18.27;;;24.90;63.50;;;;;;6015393;23;20389;-93
2023/05/07 12:13:27;;;;;;;20.67;18.97;;;25.00;66.50;;;;;;5965074;23;20376;-94
2023/05/07 12:15:59;;;;;;;19.45;17.90;;;24.80;61.30;;;;;;5996038;23;20371;-93
2023/05/07 12:18:41;;;;;;;19.77;18.17;;;24.70;64.90;;;;;;6127097;23;20426;-94
2023/05/07 12:21:09;;;;;;;18.70;17.20;;;24.80;64.40;;;;;;6134496;23;20406;-94
2023/05/07 12:24:13;;;;;;;18.75;17.17;;;24.80;62.10;;;;;;6132372;23;20372;-94
2023/05/07 12:26:40;;;;;;;19.05;17.35;;;24.70;59.40;;;;;;5991016;23;20504;-90
2023/05/07 12:29:06;;;;;;;19.23;17.70;;;24.40;60.90;;;;;;6119541;23;20407;-89
2023/05/07 12:31:32;;;;;;;18.50;17.00;;;24.20;69.10;;;;;;6123377;23;20508;-88
2023/05/07 12:33:58;;;;;;;18.90;17.20;;;24.30;73.20;;;;;;6124913;23;20421;-91
2023/05/07 12:36:24;;;;;;;19.17;17.58;;;24.30;69.90;;;;;;6099733;23;20371;-88
2023/05/07 12:38:50;;;;;;;18.83;17.25;;;24.40;64.70;;;;;;6100065;23;20371;-92
2023/05/07 12:41:16;;;;;;;18.83;17.27;;;24.70;70.90;;;;;;6098441;23;20397;-87
2023/05/07 12:43:45;;;;;;;18.73;17.23;;;25.20;67.00;;;;;;6124221;23;20454;-89
2023/05/07 12:46:13;;;;;;;19.23;17.63;;;25.40;59.70;;;;;;6124554;23;20391;-91
2023/05/07 12:48:45;;;;;;;18.30;16.80;;;25.70;59.80;;;;;;6100518;23;20375;-92
2023/05/07 12:51:13;;;;;;;17.85;16.45;;;26.00;57.00;;;;;;6124536;23;20382;-90
2023/05/07 12:53:42;;;;;;;17.38;15.98;;;26.30;56.70;;;;;;6124108;23;20462;-89
2023/05/07 12:56:08;;;;;;;17.50;16.03;;;26.50;59.60;;;;;;6149323;23;20375;-89
2023/05/07 12:58:35;;;;;;;17.73;16.42;;;26.40;54.60;;;;;;6097407;23;20470;-86
2023/05/07 13:01:07;;;;;;;17.70;16.27;;;26.00;55.20;;;;;;6148072;23;20367;-91
2023/05/07 13:03:34;;;;;;;16.50;15.10;;;25.90;57.70;;;;;;6122276;23;20367;-89
2023/05/07 13:06:07;;;;;;;16.63;15.32;;;26.20;59.30;;;;;;6122898;23;20395;-86
2023/05/07 13:08:37;;;;;;;16.60;15.30;;;26.70;61.30;;;;;;6148229;23;20879;-87
2023/05/07 13:11:04;;;;;;;16.93;15.53;;;27.10;53.90;;;;;;6147357;23;20367;-92
2023/05/07 13:13:40;;;;;;;17.25;15.88;;;27.30;54.40;;;;;;6123343;23;20449;-90
2023/05/07 13:16:09;;;;;;;17.65;16.25;;;27.20;52.40;;;;;;6121921;23;20381;-87
2023/05/07 13:18:35;;;;;;;17.10;15.77;;;26.90;53.20;;;;;;6147903;23;20374;-91
2023/05/07 13:21:01;;;;;;;16.10;14.90;;;27.00;54.70;;;;;;6146923;23;20386;-89
2023/05/07 13:23:27;;;;;;;16.73;15.32;;;27.10;52.40;;;;;;6146757;23;20375;-87
2023/05/07 13:25:54;;;;;;;15.85;14.63;;;27.40;51.60;;;;;;6148660;23;20466;-91
2023/05/07 13:28:20;;;;;;;15.25;14.05;;;27.80;53.80;;;;;;6122261;23;20760;-86
2023/05/07 13:30:46;;;;;;;16.90;15.52;;;28.20;51.00;;;;;;6146749;23;20406;-92
2023/05/07 13:33:12;;;;;;;16.35;15.05;;;28.10;51.60;;;;;;6121443;23;20860;-86
2023/05/07 13:35:38;;;;;;;19.25;17.75;;;27.80;49.70;;;;;;6147248;23;20383;-90
2023/05/07 13:38:04;;;;;;;16.30;15.05;;;27.70;50.70;;;;;;6147463;23;20697;-89
2023/05/07 13:40:30;;;;;;;15.57;14.38;;;27.80;51.50;;;;;;6122174;23;20367;-90
2023/05/07 13:42:58;;;;;;;16.17;14.98;;;28.00;48.80;;;;;;6146862;23;20458;-91
2023/05/07 13:45:25;;;;;;;15.43;14.25;;;28.10;49.20;;;;;;6146199;23;20395;-90
2023/05/07 13:47:51;;;;;;;16.17;14.95;;;28.00;50.90;;;;;;6098270;23;20363;-90
2023/05/07 13:50:17;;;;;;;16.77;15.27;;;28.10;50.20;;;;;;6145996;23;20499;-88
2023/05/07 13:52:53;;;;;;;17.07;15.67;;;27.60;48.60;;;;;;6147498;23;20378;-88
2023/05/07 13:55:22;;;;;;;15.32;14.13;;;27.30;53.60;;;;;;6148548;23;20403;-89
2023/05/07 13:57:58;;;;;;;15.63;14.32;;;27.70;52.80;;;;;;6149069;23;20450;-88
2023/05/07 14:00:25;;;;;;;14.17;13.07;;;28.20;50.80;;;;;;6122498;23;20693;-87
2023/05/07 14:02:50;;;;;;;14.80;13.55;;;28.80;50.80;;;;;;6121976;23;20414;-88
2023/05/07 14:05:16;;;;;;;15.80;14.55;;;29.20;48.80;;;;;;6147379;23;20395;-93
2023/05/07 14:07:42;;;;;;;15.10;14.00;;;29.40;49.00;;;;;;6146719;23;20694;-90
2023/05/07 14:10:09;;;;;;;14.30;13.20;;;29.60;47.50;;;;;;6123474;23;20871;-90
2023/05/07 14:12:37;;;;;;;14.57;13.48;;;30.10;49.10;;;;;;6146742;23;20402;-93
2023/05/07 14:15:03;;;;;;;15.63;14.52;;;30.40;45.80;;;;;;6149074;23;20700;-89
2023/05/07 14:17:29;;;;;;;14.98;13.88;;;30.20;43.00;;;;;;6146417;23;20394;-92
2023/05/07 14:19:55;;;;;;;15.68;14.48;;;29.70;46.30;;;;;;6121983;23;20470;-92
2023/05/07 14:22:22;;;;;;;14.45;13.43;;;28.90;44.60;;;;;;6151026;23;20407;-90
2023/05/07 14:24:48;;;;;;;15.30;14.10;;;28.70;48.30;;;;;;6180434;23;20474;-89
2023/05/07 14:27:14;;;;;;;15.60;14.40;;;28.20;48.20;;;;;;6182021;23;20375;-88
2023/05/07 14:29:40;;;;;;;15.85;14.73;;;27.90;47.30;;;;;;6181148;23;20921;-88
2023/05/07 14:32:06;;;;;;;15.50;14.27;;;27.20;48.10;;;;;;6181294;23;20407;-87
2023/05/07 14:34:32;;;;;;;15.20;14.00;;;26.80;49.90;;;;;;6205279;23;20833;-89
2023/05/07 14:36:59;;;;;;;16.30;15.02;;;26.40;50.40;;;;;;6205383;23;20383;-88
2023/05/07 14:39:25;;;;;;;16.83;15.52;;;26.10;51.50;;;;;;6180750;23;20399;-90
2023/05/07 14:41:51;;;;;;;17.55;16.15;;;25.80;52.90;;;;;;6181477;23;20453;-88
2023/05/07 14:44:17;;;;;;;17.17;15.85;;;25.40;55.20;;;;;;6156505;23;20372;-89
2023/05/07 14:46:43;;;;;;;17.17;15.77;;;25.20;54.50;;;;;;6155525;23;20383;-89
2023/05/07 14:49:16;;;;;;;18.03;16.53;;;24.90;57.30;;;;;;6156716;23;20359;-88
2023/05/07 14:51:44;;;;;;;17.65;16.25;;;25.10;56.60;;;;;;6207128;23;20678;-92
2023/05/07 14:54:10;;;;;;;16.92;15.63;;;24.60;61.00;;;;;;6181951;23;20363;-87
2023/05/07 14:56:35;;;;;;;17.58;16.25;;;24.30;62.20;;;;;;6180447;23;20376;-86
2023/05/07 14:59:02;;;;;;;17.03;15.67;;;24.20;64.70;;;;;;6207603;23;20368;-91
2023/05/07 15:01:28;;;;;;;17.63;16.23;;;24.30;71.20;;;;;;6182833;23;20371;-90
2023/05/07 15:03:54;;;;;;;16.40;15.13;;;24.40;67.80;;;;;;6180811;23;20363;-90
2023/05/07 15:06:21;;;;;;;17.50;16.00;;;24.40;76.20;;;;;;6157948;23;20391;-90
2023/05/07 15:08:47;;;;;;;16.17;14.98;;;24.40;65.80;;;;;;6157644;23;20458;-88
2023/05/07 15:11:12;;;;;;;17.73;16.40;;;24.30;72.50;;;;;;6182327;23;20861;-91
2023/05/07 15:13:38;;;;;;;17.70;16.40;;;24.20;66.00;;;;;;6182919;23;20367;-92
2023/05/07 15:16:04;;;;;;;16.47;15.17;;;24.10;75.20;;;;;;6182560;23;20871;-90
2023/05/07 15:18:29;;;;;;;16.98;15.68;;;24.20;79.60;;;;;;6208693;23;20905;-92
2023/05/07 15:20:56;;;;;;;15.95;14.65;;;24.40;72.10;;;;;;6181604;23;20424;-92
2023/05/07 15:23:22;;;;;;;15.65;14.35;;;24.40;73.40;;;;;;6157494;23;20375;-92
2023/05/07 15:25:48;;;;;;;16.67;15.37;;;24.40;79.70;;;;;;6181463;23;20478;-90
2023/05/07 15:28:13;;;;;;;16.40;15.10;;;24.40;71.10;;;;;;6183012;23;20399;-92
2023/05/07 15:30:42;;;;;;;16.52;15.32;;;24.30;71.60;;;;;;6181893;23;20371;-91
2023/05/07 15:33:08;;;;;;;16.30;14.90;;;23.90;65.30;;;;;;6182668;23;20383;-92
2023/05/07 15:35:33;;;;;;;16.17;14.88;;;23.60;77.50;;;;;;6182324;23;20766;-90
2023/05/07 15:37:59;;;;;;;16.80;15.50;;;23.40;82.20;;;;;;6157779;23;20821;-88
2023/05/07 15:40:28;;;;;;;16.90;15.60;;;23.30;80.70;;;;;;6182148;23;20370;-92
2023/05/07 15:42:56;;;;;;;17.67;16.27;;;23.10;77.10;;;;;;6156929;23;20371;-88
2023/05/07 15:45:23;;;;;;;17.02;15.70;;;23.30;77.30;;;;;;6203310;23;20387;-89
2023/05/07 15:47:49;;;;;;;16.98;15.68;;;22.80;83.90;;;;;;6155865;23;20374;-91
2023/05/07 15:50:14;;;;;;;16.63;15.32;;;22.30;92.70;;;;;;6157842;23;20379;-88
2023/05/07 15:52:40;;;;;;;16.80;15.55;;;22.20;89.20;;;;;;6182231;23;20407;-92
2023/05/07 15:55:08;;;;;;;16.80;15.45;;;21.90;92.10;;;;;;6156802;23;20689;-92
2023/05/07 15:57:34;;;;;;;17.08;15.52;;;21.80;94.90;;;;;;6157636;23;20460;-90
2023/05/07 16:00:04;;;;;;;17.13;15.80;;;21.90;95.30;;;;;;6181105;23;20427;-94
2023/05/07 16:02:33;;;;;;;17.08;15.77;;;21.90;95.10;;;;;;6157400;23;20459;-93
2023/05/07 16:04:59;;;;;;;17.40;16.00;;;21.90;96.00;;;;;;6182995;23;20764;-92
2023/05/07 16:07:25;;;;;;;17.38;15.98;;;21.70;94.30;;;;;;6161077;23;20407;-92
2023/05/07 16:09:51;;;;;;;16.70;15.40;;;21.60;94.90;;;;;;6184333;23;20828;-91
2023/05/07 16:12:17;;;;;;;16.40;15.10;;;21.60;94.50;;;;;;6158683;23;20939;-88
2023/05/07 16:14:43;;;;;;;15.82;14.57;;;21.80;95.40;;;;;;6183154;23;20368;-88
2023/05/07 16:17:08;;;;;;;15.73;14.50;;;21.90;94.20;;;;;;6208879;23;20689;-91
2023/05/07 16:19:34;;;;;;;15.20;14.00;;;21.90;92.00;;;;;;6160490;23;20430;-89
2023/05/07 16:22:00;;;;;;;15.25;14.10;;;22.10;96.70;;;;;;6182956;23;20379;-89
2023/05/07 16:24:26;;;;;;;15.20;14.10;;;21.70;93.00;;;;;;6208624;23;20869;-88
2023/05/07 16:26:51;;;;;;;15.02;13.93;;;21.70;91.00;;;;;;6157076;23;20371;-87
2023/05/07 16:29:19;;;;;;;15.13;14.00;;;21.80;95.00;;;;;;6207809;23;20760;-90
2023/05/07 16:31:45;;;;;;;15.98;14.68;;;22.10;96.80;;;;;;6210389;23;21154;-91
2023/05/07 16:34:10;;;;;;;15.02;13.82;;;22.20;90.00;;;;;;6208302;23;20492;-90
2023/05/07 16:36:36;;;;;;;14.80;13.70;;;21.70;97.90;;;;;;6208609;23;20395;-88
2023/05/07 16:39:02;;;;;;;15.25;14.05;;;21.70;97.40;;;;;;6182395;23;20371;-89
2023/05/07 16:41:27;;;;;;;15.43;14.23;;;21.60;95.60;;;;;;6181425;23;20382;-87
2023/05/07 16:43:53;;;;;;;14.07;12.97;;;21.70;94.70;;;;;;6206898;23;20407;-87
2023/05/07 16:46:19;;;;;;;14.47;13.47;;;21.70;93.30;;;;;;6183465;23;20398;-88
2023/05/07 16:48:45;;;;;;;14.82;13.55;;;22.00;92.40;;;;;;6181331;23;20494;-88
2023/05/07 16:51:10;;;;;;;14.90;13.85;;;21.60;94.60;;;;;;6209721;23;20360;-90
2023/05/07 16:53:36;;;;;;;15.67;14.47;;;21.60;96.60;;;;;;6183236;23;20400;-92
2023/05/07 16:56:05;;;;;;;16.52;15.32;;;21.90;96.60;;;;;;6182824;23;20378;-90
2023/05/07 16:58:32;;;;;;;15.77;14.68;;;21.50;97.80;;;;;;6157951;23;20458;-90